createdAt,value
2019-04-21T00:01:34.671Z,10.47
2019-04-21T00:04:11.331Z,10.37
2019-04-21T00:06:55.277Z,10.47
2019-04-21T00:09:31.219Z,10.90
2019-04-21T00:11:55.633Z,10.70
2019-04-21T00:14:21.992Z,10.60
2019-04-21T00:16:55.231Z,10.63
2019-04-21T00:19:28.463Z,10.77
2019-04-21T00:22:08.587Z,10.25
2019-04-21T00:24:46.934Z,10.10
2019-04-21T00:27:21.416Z,11.18
2019-04-21T00:29:51.816Z,10.82
2019-04-21T00:32:21.961Z,11.20
2019-04-21T00:34:50.403Z,10.35
2019-04-21T00:37:24.127Z,11.08
2019-04-21T00:40:09.229Z,10.87
2019-04-21T00:42:40.360Z,10.15
2019-04-21T00:45:09.132Z,11.38
2019-04-21T00:47:40.272Z,10.30
2019-04-21T00:50:17.919Z,11.45
2019-04-21T00:53:00.447Z,11.18
2019-04-21T00:55:38.716Z,11.20
2019-04-21T00:58:13.097Z,10.85
2019-04-21T01:00:38.517Z,11.28
2019-04-21T01:03:14.221Z,11.12
2019-04-21T01:05:51.819Z,11.53
2019-04-21T01:08:19.848Z,10.95
2019-04-21T01:10:43.957Z,11.73
2019-04-21T01:13:23.512Z,11.22
2019-04-21T01:15:59.763Z,10.58
2019-04-21T01:18:31.512Z,11.25
2019-04-21T01:20:40.980Z,12.33
2019-04-21T01:23:12.695Z,11.37
2019-04-21T01:25:55.887Z,11.33
2019-04-21T01:28:36.553Z,10.88
2019-04-21T01:31:11.114Z,10.88
2019-04-21T01:33:48.639Z,10.93
2019-04-21T01:36:14.014Z,10.70
2019-04-21T01:38:59.090Z,11.15
2019-04-21T01:41:28.179Z,11.10
2019-04-21T01:43:53.487Z,11.65
2019-04-21T01:46:20.690Z,11.33
2019-04-21T01:48:52.554Z,10.53
2019-04-21T01:51:26.026Z,10.93
2019-04-21T01:54:09.376Z,11.03
2019-04-21T01:56:44.535Z,10.38
2019-04-21T01:59:09.000Z,10.60
2019-04-21T02:01:52.453Z,10.82
2019-04-21T02:04:36.383Z,11.63
2019-04-21T02:07:04.301Z,10.95
2019-04-21T02:09:35.650Z,10.80
2019-04-21T02:12:08.736Z,11.15
2019-04-21T02:14:45.836Z,11.03
2019-04-21T02:17:14.504Z,11.35
2019-04-21T02:19:41.250Z,10.78
2019-04-21T02:22:21.557Z,11.83
2019-04-21T02:24:56.763Z,11.25
2019-04-21T02:27:26.523Z,11.40
2019-04-21T02:30:00.130Z,11.08
2019-04-21T02:32:43.753Z,11.20
2019-04-21T02:35:24.644Z,11.22
2019-04-21T02:40:21.570Z,10.90
2019-04-21T02:43:03.272Z,11.53
2019-04-21T02:45:22.909Z,10.95
2019-04-21T02:50:33.977Z,10.95
2019-04-21T02:53:05.234Z,10.50
2019-04-21T02:58:29.107Z,10.65
2019-04-21T03:01:18.745Z,10.15
2019-04-21T03:03:54.884Z,11.25
2019-04-21T03:06:53.806Z,11.03
2019-04-21T03:09:18.515Z,11.22
2019-04-21T03:11:53.429Z,10.63
2019-04-21T03:14:30.735Z,10.63
2019-04-21T03:16:47.127Z,10.65
2019-04-21T03:19:36.460Z,12.28
2019-04-21T03:22:07.177Z,10.18
2019-04-21T03:24:46.307Z,10.72
2019-04-21T03:27:21.009Z,11.12
2019-04-21T03:29:37.187Z,9.83
2019-04-21T03:35:15.210Z,11.30
2019-04-21T03:37:23.831Z,10.98
2019-04-21T03:39:56.833Z,11.15
2019-04-21T03:42:27.045Z,11.00
2019-04-21T03:47:30.805Z,11.15
2019-04-21T03:50:14.131Z,10.80
2019-04-21T04:06:11.463Z,10.90
2019-04-21T04:11:29.923Z,11.48
2019-04-21T04:14:04.061Z,11.90
2019-04-21T04:16:31.215Z,11.08
2019-04-21T04:24:07.467Z,11.38
2019-04-21T04:26:39.466Z,11.18
2019-04-21T04:29:15.520Z,11.00
2019-04-21T04:31:49.861Z,11.35
2019-04-21T04:39:36.734Z,11.50
2019-04-21T04:42:17.494Z,11.83
2019-04-21T04:47:20.356Z,11.55
2019-04-21T04:49:51.577Z,11.48
2019-04-21T04:57:39.580Z,11.93
2019-04-21T05:00:00.519Z,11.20
2019-04-21T05:02:35.600Z,11.10
2019-04-21T05:10:50.927Z,12.18
2019-04-21T05:12:38.833Z,11.55
2019-04-21T05:15:16.239Z,11.10
2019-04-21T05:20:17.086Z,12.03
2019-04-21T05:22:42.699Z,11.30
2019-04-21T05:25:08.319Z,11.57
2019-04-21T05:27:44.895Z,11.73
2019-04-21T05:30:28.422Z,11.40
2019-04-21T05:33:00.293Z,11.45
2019-04-21T05:35:46.276Z,12.10
2019-04-21T05:38:17.405Z,12.75
2019-04-21T05:40:50.066Z,12.28
2019-04-21T05:43:27.982Z,11.38
2019-04-21T05:46:13.740Z,11.38
2019-04-21T05:48:36.405Z,11.90
2019-04-21T05:51:06.061Z,11.33
2019-04-21T05:53:39.334Z,11.78
2019-04-21T05:56:16.241Z,12.80
2019-04-21T05:58:43.541Z,12.35
2019-04-21T06:01:31.537Z,12.07
2019-04-21T06:03:57.564Z,12.20
2019-04-21T06:06:34.098Z,12.63
2019-04-21T06:08:59.553Z,12.10
2019-04-21T06:11:33.820Z,12.43
2019-04-21T06:14:08.116Z,11.67
2019-04-21T06:16:45.145Z,12.23
2019-04-21T06:19:15.066Z,12.00
2019-04-21T06:21:40.566Z,12.10
2019-04-21T06:24:15.970Z,11.90
2019-04-21T06:26:59.214Z,12.17
2019-04-21T06:29:24.004Z,11.60
2019-04-21T06:34:40.760Z,12.13
2019-04-21T06:37:31.681Z,11.30
2019-04-21T06:39:44.819Z,12.13
2019-04-21T06:42:09.776Z,11.93
2019-04-21T06:44:48.341Z,11.87
2019-04-21T06:47:24.474Z,10.90
2019-04-21T06:49:45.642Z,11.30
2019-04-21T06:52:44.680Z,11.97
2019-04-21T06:55:00.098Z,11.90
2019-04-21T06:57:29.629Z,12.47
2019-04-21T06:59:58.713Z,12.40
2019-04-21T07:05:20.438Z,11.90
2019-04-21T07:07:35.543Z,11.67
2019-04-21T07:10:10.369Z,12.33
2019-04-21T07:12:39.411Z,11.73
2019-04-21T07:15:13.315Z,11.87
2019-04-21T07:17:46.975Z,12.33
2019-04-21T07:20:17.214Z,11.50
2019-04-21T07:22:57.024Z,12.70
2019-04-21T07:25:29.806Z,11.90
2019-04-21T07:27:59.247Z,12.07
2019-04-21T07:30:35.140Z,11.70
2019-04-21T07:33:19.160Z,12.00
2019-04-21T07:35:37.337Z,12.20
2019-04-21T07:38:15.040Z,11.60
2019-04-21T07:40:38.965Z,11.93
2019-04-21T07:43:15.219Z,13.33
2019-04-21T07:45:40.990Z,12.13
2019-04-21T07:48:29.555Z,11.93
2019-04-21T07:51:04.042Z,11.03
2019-04-21T07:53:52.553Z,11.27
2019-04-21T07:55:59.649Z,10.63
2019-04-21T07:58:54.097Z,11.20
2019-04-21T08:03:58.170Z,11.00
2019-04-21T08:06:27.068Z,11.10
2019-04-21T08:08:55.465Z,11.20
2019-04-21T08:11:25.428Z,11.67
2019-04-21T08:14:04.588Z,11.77
2019-04-21T08:16:42.066Z,11.70
2019-04-21T08:19:09.643Z,11.27
2019-04-21T08:21:43.010Z,11.97
2019-04-21T08:24:14.443Z,11.80
2019-04-21T08:26:51.607Z,11.37
2019-04-21T08:29:25.804Z,10.47
2019-04-21T08:32:00.753Z,12.03
2019-04-21T08:34:28.480Z,11.80
2019-04-21T08:36:57.263Z,10.57
2019-04-21T08:39:32.930Z,11.30
2019-04-21T08:42:06.359Z,11.67
2019-04-21T08:44:44.958Z,10.27
2019-04-21T08:47:07.476Z,10.70
2019-04-21T08:49:41.452Z,11.60
2019-04-21T08:52:26.021Z,10.90
2019-04-21T08:54:52.648Z,11.40
2019-04-21T08:57:32.197Z,11.90
2019-04-21T09:00:20.040Z,11.47
2019-04-21T09:03:02.453Z,11.53
2019-04-21T09:05:31.133Z,12.00
2019-04-21T09:08:03.797Z,11.10
2019-04-21T09:10:37.823Z,11.70
2019-04-21T09:13:04.288Z,10.97
2019-04-21T09:15:41.693Z,11.90
2019-04-21T09:18:08.481Z,10.77
2019-04-21T09:20:52.202Z,11.00
2019-04-21T09:23:19.263Z,11.10
2019-04-21T09:25:57.393Z,11.33
2019-04-21T09:28:22.665Z,11.30
2019-04-21T09:30:48.915Z,11.30
2019-04-21T09:33:14.071Z,11.70
2019-04-21T09:35:49.153Z,11.40
2019-04-21T09:38:27.617Z,10.77
2019-04-21T09:40:54.052Z,11.30
2019-04-21T09:43:30.808Z,11.50
2019-04-21T09:45:56.718Z,11.50
2019-04-21T09:48:29.793Z,11.50
2019-04-21T09:51:00.409Z,10.77
2019-04-21T09:53:37.641Z,11.47
2019-04-21T09:56:07.956Z,10.97
2019-04-21T09:58:40.752Z,10.80
2019-04-21T10:01:19.718Z,10.93
2019-04-21T10:03:48.242Z,11.67
2019-04-21T10:06:17.324Z,11.13
2019-04-21T10:08:50.443Z,10.50
2019-04-21T10:11:21.001Z,10.80
2019-04-21T10:13:53.020Z,11.77
2019-04-21T10:16:26.099Z,10.50
2019-04-21T10:18:56.923Z,11.70
2019-04-21T10:21:29.290Z,11.60
2019-04-21T10:24:00.343Z,11.30
2019-04-21T10:26:31.172Z,12.43
2019-04-21T10:29:08.545Z,11.10
2019-04-21T10:31:34.847Z,11.20
2019-04-21T10:34:05.623Z,12.10
2019-04-21T10:36:37.229Z,11.70
2019-04-21T10:39:09.300Z,11.63
2019-04-21T10:41:41.424Z,11.60
2019-04-21T10:44:13.535Z,11.87
2019-04-21T10:46:47.350Z,11.60
2019-04-21T10:49:18.899Z,12.00
2019-04-21T10:51:50.796Z,11.53
2019-04-21T10:54:21.905Z,12.03
2019-04-21T10:56:52.714Z,11.60
2019-04-21T10:59:25.000Z,11.33
2019-04-21T11:01:56.855Z,12.00
2019-04-21T11:04:34.231Z,11.50
2019-04-21T11:07:10.774Z,11.57
2019-04-21T11:09:38.025Z,10.63
2019-04-21T11:12:10.159Z,11.70
2019-04-21T11:14:41.219Z,10.90
2019-04-21T11:17:12.322Z,11.63
2019-04-21T11:19:43.247Z,11.47
2019-04-21T11:22:14.727Z,11.57
2019-04-21T11:24:46.933Z,11.60
2019-04-21T11:27:19.134Z,11.00
2019-04-21T11:29:50.027Z,11.83
2019-04-21T11:32:21.208Z,11.50
2019-04-21T11:34:52.089Z,11.37
2019-04-21T11:37:26.036Z,11.47
2019-04-21T11:40:03.283Z,11.53
2019-04-21T11:42:31.549Z,10.87
2019-04-21T11:45:04.250Z,11.60
2019-04-21T11:47:38.437Z,12.23
2019-04-21T11:50:10.922Z,11.40
2019-04-21T11:52:43.181Z,11.10
2019-04-21T11:55:14.356Z,11.60
2019-04-21T11:57:49.467Z,11.60
2019-04-21T12:00:17.992Z,11.30
2019-04-21T12:02:48.765Z,11.87
2019-04-21T12:05:19.564Z,11.40
2019-04-21T12:07:51.334Z,11.07
2019-04-21T12:10:22.221Z,11.47
2019-04-21T12:12:53.212Z,11.70
2019-04-21T12:15:25.065Z,11.83
2019-04-21T12:17:56.466Z,11.40
2019-04-21T12:20:28.596Z,12.13
2019-04-21T12:23:00.382Z,11.23
2019-04-21T12:25:33.374Z,10.77
2019-04-21T12:28:05.774Z,11.87
2019-04-21T12:30:37.759Z,11.70
2019-04-21T12:33:12.075Z,11.83
2019-04-21T12:35:43.869Z,11.60
2019-04-21T12:38:14.794Z,11.67
2019-04-21T12:40:46.544Z,12.20
2019-04-21T12:43:18.785Z,11.73
2019-04-21T12:45:49.647Z,11.63
2019-04-21T12:48:20.431Z,12.20
2019-04-21T12:50:51.959Z,12.03
2019-04-21T12:53:23.553Z,11.67
2019-04-21T12:55:55.735Z,11.90
2019-04-21T12:58:26.753Z,12.47
2019-04-21T13:00:58.831Z,10.90
2019-04-21T13:03:30.503Z,11.40
2019-04-21T13:06:01.513Z,11.40
2019-04-21T13:08:41.503Z,11.07
2019-04-21T13:11:06.421Z,11.37
2019-04-21T13:13:37.753Z,12.13
2019-04-21T13:16:09.646Z,12.20
2019-04-21T13:18:41.696Z,12.30
2019-04-21T13:21:13.941Z,12.10
2019-04-21T13:23:45.200Z,11.60
2019-04-21T13:26:27.170Z,11.57
2019-04-21T13:28:50.005Z,11.77
2019-04-21T13:31:22.283Z,11.70
2019-04-21T13:33:53.367Z,11.97
2019-04-21T13:36:25.561Z,11.70
2019-04-21T13:39:49.105Z,11.80
2019-04-21T13:41:59.922Z,12.00
2019-04-21T13:44:21.338Z,12.37
2019-04-21T13:46:52.561Z,11.90
2019-04-21T13:49:23.520Z,11.90
2019-04-21T13:51:54.419Z,12.20
2019-04-21T13:54:25.518Z,11.70
2019-04-21T13:56:56.610Z,12.00
2019-04-21T13:59:28.666Z,12.07
2019-04-21T14:02:00.501Z,11.73
2019-04-21T14:04:31.529Z,10.90
2019-04-21T14:07:02.605Z,11.53
2019-04-21T14:09:40.315Z,11.23
2019-04-21T14:12:07.486Z,10.70
2019-04-21T14:14:38.700Z,10.73
2019-04-21T14:17:10.787Z,11.00
2019-04-21T14:19:41.686Z,11.03
2019-04-21T14:22:14.400Z,10.90
2019-04-21T14:24:45.836Z,10.63
2019-04-21T14:27:16.658Z,10.87
2019-04-21T14:29:47.434Z,11.30
2019-04-21T14:32:18.332Z,11.17
2019-04-21T14:34:50.694Z,10.63
2019-04-21T14:37:22.598Z,10.93
2019-04-21T14:40:01.804Z,11.30
2019-04-21T14:42:26.519Z,11.23
2019-04-21T14:44:58.609Z,11.60
2019-04-21T14:47:44.272Z,11.50
2019-04-21T14:50:34.433Z,10.67
2019-04-21T14:53:11.759Z,11.10
2019-04-21T14:55:45.745Z,11.60
2019-04-21T14:58:17.215Z,10.90
2019-04-21T15:00:55.584Z,11.30
2019-04-21T15:03:27.832Z,11.50
2019-04-21T15:05:58.737Z,11.77
2019-04-21T15:08:29.509Z,11.63
2019-04-21T15:11:01.100Z,11.27
2019-04-21T15:13:32.343Z,11.90
2019-04-21T15:16:04.740Z,10.83
2019-04-21T15:18:36.520Z,11.20
2019-04-21T15:21:08.851Z,11.50
2019-04-21T15:23:40.319Z,11.33
2019-04-21T15:26:12.298Z,11.67
2019-04-21T15:28:44.542Z,11.20
2019-04-21T15:31:23.901Z,11.77
2019-04-21T15:33:49.573Z,11.50
2019-04-21T15:36:20.968Z,11.30
2019-04-21T15:38:52.027Z,11.40
2019-04-21T15:41:23.015Z,10.80
2019-04-21T15:43:54.384Z,11.30
2019-04-21T15:46:25.173Z,11.10
2019-04-21T15:48:57.117Z,10.90
2019-04-21T15:51:29.528Z,11.63
2019-04-21T15:54:00.934Z,10.90
2019-04-21T15:56:49.100Z,10.90
2019-04-21T15:59:24.623Z,11.40
2019-04-21T16:01:58.537Z,11.73
2019-04-21T16:04:30.675Z,11.70
2019-04-21T16:07:01.700Z,11.83
2019-04-21T16:09:34.367Z,11.43
2019-04-21T16:12:05.204Z,11.03
2019-04-21T16:14:36.501Z,11.70
2019-04-21T16:17:07.607Z,12.17
2019-04-21T16:19:38.475Z,12.17
2019-04-21T16:22:10.699Z,11.83
2019-04-21T16:24:42.029Z,11.93
2019-04-21T16:27:12.931Z,12.70
2019-04-21T16:29:43.902Z,11.87
2019-04-21T16:32:18.417Z,11.20
2019-04-21T16:34:54.239Z,11.40
2019-04-21T16:37:21.467Z,11.40
2019-04-21T16:39:53.660Z,11.57
2019-04-21T16:42:24.580Z,11.53
2019-04-21T16:44:56.708Z,12.07
2019-04-21T16:47:28.263Z,12.10
2019-04-21T16:49:59.143Z,11.20
2019-04-21T16:52:32.164Z,11.10
2019-04-21T16:55:08.726Z,11.53
2019-04-21T16:57:44.277Z,11.80
2019-04-21T17:00:29.095Z,11.30
2019-04-21T17:02:50.528Z,11.80
2019-04-21T17:05:22.403Z,10.93
2019-04-21T17:07:53.323Z,11.33
2019-04-21T17:10:24.567Z,11.23
2019-04-21T17:12:56.029Z,11.20
2019-04-21T17:15:46.141Z,10.67
2019-04-21T17:18:14.593Z,11.27
2019-04-21T17:20:42.034Z,10.63
2019-04-21T17:23:05.123Z,10.73
2019-04-21T17:25:37.023Z,10.63
2019-04-21T17:28:09.831Z,10.47
2019-04-21T17:30:40.616Z,10.70
2019-04-21T17:33:16.161Z,10.70
2019-04-21T17:35:44.906Z,10.77
2019-04-21T17:38:16.333Z,10.87
2019-04-21T17:40:47.582Z,11.17
2019-04-21T17:43:19.725Z,11.00
2019-04-21T17:45:51.080Z,11.47
2019-04-21T17:48:23.295Z,11.17
2019-04-21T17:50:56.134Z,10.43
2019-04-21T17:53:38.204Z,10.70
2019-04-21T17:56:23.308Z,10.60
2019-04-21T17:58:58.180Z,10.80
2019-04-21T18:01:35.603Z,11.17
2019-04-21T18:04:12.318Z,10.10
2019-04-21T18:06:40.730Z,10.70
2019-04-21T18:09:21.868Z,10.50
2019-04-21T18:11:46.254Z,11.33
2019-04-21T18:14:01.711Z,9.80
2019-04-21T18:16:39.252Z,10.53
2019-04-21T18:19:06.725Z,10.10
2019-04-21T18:21:59.865Z,10.53
2019-04-21T18:24:40.900Z,10.10
2019-04-21T18:27:05.438Z,10.40
2019-04-21T18:29:34.898Z,10.57
2019-04-21T18:32:06.344Z,9.80
2019-04-21T18:34:52.364Z,10.23
2019-04-21T18:37:26.246Z,9.60
2019-04-21T18:40:02.689Z,10.00
2019-04-21T18:42:49.243Z,10.50
2019-04-21T18:48:21.914Z,9.83
2019-04-21T18:50:58.446Z,9.90
2019-04-21T18:53:41.530Z,10.10
2019-04-21T18:56:03.944Z,10.03
2019-04-21T18:58:30.719Z,10.50
2019-04-21T19:01:07.333Z,9.87
2019-04-21T19:03:41.062Z,9.40
2019-04-21T19:06:12.849Z,10.17
2019-04-21T19:08:59.553Z,10.20
2019-04-21T19:11:29.278Z,10.00
2019-04-21T19:14:19.776Z,10.43
2019-04-21T19:19:35.396Z,9.47
2019-04-21T19:21:52.508Z,10.20
2019-04-21T19:24:24.255Z,10.17
2019-04-21T19:27:01.697Z,10.73
2019-04-21T19:32:13.709Z,9.60
2019-04-21T19:34:19.768Z,10.27
2019-04-21T19:36:51.004Z,9.93
2019-04-21T19:39:37.883Z,10.03
2019-04-21T19:42:00.493Z,10.27
2019-04-21T19:44:43.576Z,10.53
2019-04-21T19:47:17.207Z,10.77
2019-04-21T19:49:51.381Z,10.43
2019-04-21T19:52:07.471Z,9.90
2019-04-21T19:54:38.159Z,9.63
2019-04-21T19:57:07.056Z,10.10
2019-04-21T19:59:44.624Z,10.37
2019-04-21T20:02:12.188Z,9.97
2019-04-21T20:04:51.471Z,11.03
2019-04-21T20:07:28.982Z,13.40
2019-04-21T20:10:09.244Z,17.07
2019-04-21T20:12:40.143Z,25.30
2019-04-21T20:15:23.254Z,19.13
2019-04-21T20:17:44.960Z,13.80
2019-04-21T20:20:00.454Z,14.20
2019-04-21T20:22:36.825Z,10.83
2019-04-21T20:25:11.611Z,13.00
2019-04-21T20:27:49.397Z,11.97
2019-04-21T20:30:32.764Z,11.70
2019-04-21T20:33:14.150Z,12.00
2019-04-21T20:35:44.862Z,12.60
2019-04-21T20:38:04.800Z,12.53
2019-04-21T20:40:30.880Z,13.63
2019-04-21T20:43:22.410Z,15.00
2019-04-21T20:45:45.553Z,13.07
2019-04-21T20:48:15.309Z,13.70
2019-04-21T20:50:56.212Z,13.10
2019-04-21T20:53:25.128Z,12.10
2019-04-21T20:55:52.765Z,12.07
2019-04-21T20:58:28.460Z,11.87
2019-04-21T21:01:20.231Z,11.70
2019-04-21T21:03:36.015Z,11.50
2019-04-21T21:06:03.762Z,11.23
2019-04-21T21:08:40.081Z,11.90
2019-04-21T21:11:07.924Z,11.70
2019-04-21T21:13:47.876Z,11.50
2019-04-21T21:16:20.040Z,10.97
2019-04-21T21:19:03.714Z,11.93
2019-04-21T21:21:20.666Z,11.80
2019-04-21T21:23:53.073Z,12.67
2019-04-21T21:26:31.254Z,12.00
2019-04-21T21:28:56.308Z,11.43
2019-04-21T21:31:38.721Z,11.90
2019-04-21T21:34:11.877Z,11.83
2019-04-21T21:36:41.812Z,11.70
2019-04-21T21:39:12.836Z,11.67
2019-04-21T21:41:34.489Z,11.20
2019-04-21T21:44:08.785Z,12.03
2019-04-21T21:46:48.289Z,11.27
2019-04-21T21:49:26.127Z,11.73
2019-04-21T21:51:52.878Z,12.20
2019-04-21T21:54:11.770Z,12.17
2019-04-21T21:56:42.738Z,12.30
2019-04-21T21:59:20.131Z,12.33
2019-04-21T22:01:50.717Z,12.50
2019-04-21T22:04:26.321Z,12.93
2019-04-21T22:06:58.237Z,12.50
2019-04-21T22:09:24.433Z,13.50
2019-04-21T22:11:59.361Z,14.10
2019-04-21T22:14:34.036Z,11.60
2019-04-21T22:17:20.744Z,11.40
2019-04-21T22:19:59.896Z,12.07
2019-04-21T22:22:21.496Z,11.80
2019-04-21T22:24:50.681Z,12.10
2019-04-21T22:27:12.893Z,11.60
2019-04-21T22:29:49.239Z,11.53
2019-04-21T22:32:21.556Z,11.00
2019-04-21T22:34:54.845Z,11.83
2019-04-21T22:37:39.276Z,11.90
2019-04-21T22:40:09.629Z,11.70
2019-04-21T22:42:33.214Z,12.23
2019-04-21T22:45:00.708Z,11.87
2019-04-21T22:47:34.552Z,11.17
2019-04-21T22:50:06.451Z,12.40
2019-04-21T22:52:37.526Z,11.80
2019-04-21T22:55:16.725Z,12.97
2019-04-21T22:57:47.855Z,13.17
2019-04-21T23:00:16.768Z,12.37
2019-04-21T23:02:47.387Z,11.90
2019-04-21T23:05:22.481Z,11.80
2019-04-21T23:07:57.676Z,11.93
2019-04-21T23:10:23.720Z,12.07
2019-04-21T23:12:59.544Z,12.10
2019-04-21T23:15:35.635Z,12.03
2019-04-21T23:18:22.061Z,12.33
2019-04-21T23:23:29.696Z,11.97
2019-04-21T23:25:53.285Z,12.07
2019-04-21T23:28:30.412Z,12.00
2019-04-21T23:31:03.615Z,11.17
2019-04-21T23:33:19.568Z,11.13
2019-04-21T23:35:49.534Z,11.77
2019-04-21T23:38:31.967Z,12.50
2019-04-21T23:40:58.618Z,11.40
2019-04-21T23:43:29.990Z,12.80
2019-04-21T23:46:01.673Z,11.27
2019-04-21T23:48:42.471Z,11.73
2019-04-21T23:51:15.718Z,11.40
2019-04-21T23:53:37.672Z,11.20
2019-04-21T23:56:08.859Z,11.00
2019-04-21T23:58:40.279Z,11.27
